Time;durP1;ratioP1;P1;durP2;ratioP2;P2;SDS_P1;SDS_P2;PMS_P1;PMS_P2;Temp;Humidity;BMP_temperature;BMP_pressure;BME280_temperature;BME280_humidity;BME280_pressure;Samples;Min_cycle;Max_cycle;Signal;HPM_P1;HPM_P2
2021/10/08 00:04:08;;;;;;;;;;;;;;;9.31;82.24;103107.56;10152314;28;19921;-68
2021/10/08 00:09:04;;;;;;;;;;;;;;;9.29;81.89;103109.72;10151090;28;19932;-69
2021/10/08 00:14:01;;;;;;;;;;;;;;;9.26;81.95;103115.69;10147831;28;20018;-69
2021/10/08 00:18:57;;;;;;;;;;;;;;;9.21;81.90;103118.31;10147565;28;20337;-69
2021/10/08 00:23:54;;;;;;;;;;;;;;;9.17;82.00;103119.91;10146095;28;20396;-68
2021/10/08 00:28:50;;;;;;;;;;;;;;;9.11;82.38;103129.09;10151988;28;19933;-69
2021/10/08 00:33:46;;;;;;;;;;;;;;;9.10;82.08;103121.97;10154052;28;20375;-69
2021/10/08 00:38:42;;;;;;;;;;;;;;;9.06;82.58;103122.47;10144003;28;19936;-68
2021/10/08 00:43:39;;;;;;;;;;;;;;;9.00;82.56;103117.19;10145794;28;19980;-68
2021/10/08 00:48:35;;;;;;;;;;;;;;;8.94;82.60;103124.47;10140948;28;19922;-68
2021/10/08 00:53:32;;;;;;;;;;;;;;;8.95;82.70;103122.56;10144694;28;20422;-69
2021/10/08 00:58:29;;;;;;;;;;;;;;;8.90;83.16;103117.84;10145168;28;19921;-68
2021/10/08 01:03:25;;;;;;;;;;;;;;;8.90;82.87;103112.38;10137501;28;20359;-68
2021/10/08 01:08:21;;;;;;;;;;;;;;;8.88;83.42;103119.97;10138823;28;19922;-68
2021/10/08 01:13:18;;;;;;;;;;;;;;;8.84;83.06;103118.81;10150611;28;19922;-68
2021/10/08 01:18:14;;;;;;;;;;;;;;;8.82;82.87;103115.53;10148008;28;20530;-69
2021/10/08 01:23:11;;;;;;;;;;;;;;;8.79;83.18;103121.47;10146746;28;20063;-69
2021/10/08 01:28:08;;;;;;;;;;;;;;;8.75;82.89;103126.59;10147084;28;20012;-68
2021/10/08 01:33:05;;;;;;;;;;;;;;;8.70;83.21;103117.50;10149682;28;20387;-68
2021/10/08 01:38:01;;;;;;;;;;;;;;;8.69;82.86;103121.31;10147404;28;20356;-69
2021/10/08 01:42:59;;;;;;;;;;;;;;;8.63;82.51;103118.50;10143348;28;19922;-69
2021/10/08 01:47:55;;;;;;;;;;;;;;;8.59;82.81;103116.50;10153549;28;20315;-68
2021/10/08 01:53:00;;;;;;;;;;;;;;;8.60;82.98;103118.97;10147768;28;20016;-69
2021/10/08 01:57:56;;;;;;;;;;;;;;;8.55;82.48;103116.16;10142906;28;20016;-69
2021/10/08 02:02:53;;;;;;;;;;;;;;;8.51;82.59;103114.97;10144994;28;20045;-69
2021/10/08 02:07:50;;;;;;;;;;;;;;;8.45;82.91;103115.97;10139081;28;20384;-69
2021/10/08 02:12:46;;;;;;;;;;;;;;;8.40;83.04;103124.91;10139995;28;19953;-69
2021/10/08 02:17:43;;;;;;;;;;;;;;;8.37;83.03;103129.97;10137710;28;20411;-69
2021/10/08 02:22:41;;;;;;;;;;;;;;;8.32;83.33;103132.59;10144829;28;20857;-68
2021/10/08 02:27:37;;;;;;;;;;;;;;;8.34;82.61;103130.47;10141552;28;19921;-69
2021/10/08 02:32:33;;;;;;;;;;;;;;;8.30;82.96;103134.72;10137557;28;20454;-69
2021/10/08 02:37:30;;;;;;;;;;;;;;;8.29;82.99;103138.53;10135874;28;19926;-68
2021/10/08 02:42:26;;;;;;;;;;;;;;;8.26;83.19;103145.28;10137054;28;19922;-68
2021/10/08 02:47:23;;;;;;;;;;;;;;;8.22;82.84;103144.97;10141000;28;20012;-68
2021/10/08 02:52:19;;;;;;;;;;;;;;;8.17;82.79;103153.03;10141099;28;19926;-67
2021/10/08 02:57:32;;;;;;;;;;;;;;;8.07;82.62;103146.53;10137458;28;19926;-67
2021/10/08 03:02:29;;;;;;;;;;;;;;;8.04;82.81;103153.31;10138779;28;19922;-68
2021/10/08 03:07:25;;;;;;;;;;;;;;;7.99;82.96;103153.22;10146823;28;19921;-67
2021/10/08 03:12:22;;;;;;;;;;;;;;;7.96;83.45;103150.94;10148049;28;19961;-68
2021/10/08 03:17:18;;;;;;;;;;;;;;;7.94;83.47;103153.94;10144115;28;19936;-69
2021/10/08 03:22:14;;;;;;;;;;;;;;;7.91;83.59;103153.56;10146980;28;20333;-68
2021/10/08 03:27:11;;;;;;;;;;;;;;;7.88;83.62;103159.50;10149568;28;19976;-69
2021/10/08 03:32:07;;;;;;;;;;;;;;;7.91;83.16;103159.00;10152827;28;19972;-69
2021/10/08 03:37:08;;;;;;;;;;;;;;;7.88;83.65;103156.78;10153679;28;19922;-69
2021/10/08 03:42:05;;;;;;;;;;;;;;;7.84;83.79;103163.78;10150712;28;19977;-69
2021/10/08 03:47:01;;;;;;;;;;;;;;;7.80;83.88;103158.81;10151054;28;19996;-69
2021/10/08 03:51:58;;;;;;;;;;;;;;;7.75;83.94;103166.88;10128293;28;19972;-69
2021/10/08 03:56:54;;;;;;;;;;;;;;;7.71;84.21;103165.69;10149200;28;19929;-68
2021/10/08 04:01:50;;;;;;;;;;;;;;;7.71;83.97;103167.59;10146081;28;19926;-69
2021/10/08 04:06:47;;;;;;;;;;;;;;;7.68;84.02;103171.63;10153157;28;19953;-68
2021/10/08 04:11:43;;;;;;;;;;;;;;;7.68;84.49;103163.44;10149426;28;19980;-69
2021/10/08 04:16:40;;;;;;;;;;;;;;;7.70;84.05;103176.81;10136679;28;20034;-69
2021/10/08 04:21:36;;;;;;;;;;;;;;;7.70;84.39;103163.19;10147559;28;20017;-70
2021/10/08 04:26:33;;;;;;;;;;;;;;;7.69;84.22;103176.00;10143899;28;19929;-69
2021/10/08 04:31:29;;;;;;;;;;;;;;;7.68;83.98;103177.06;10145663;28;20349;-69
2021/10/08 04:36:26;;;;;;;;;;;;;;;7.67;83.96;103175.41;10136897;28;19936;-71
2021/10/08 04:41:22;;;;;;;;;;;;;;;7.61;83.99;103181.78;10148975;28;19933;-71
2021/10/08 04:46:19;;;;;;;;;;;;;;;7.61;83.83;103181.78;10122648;28;19961;-72
2021/10/08 04:53:56;;;;;;;9.43;5.35;;;;;;;7.56;83.42;103189.84;10385424;27;20187;-71
2021/10/08 04:58:52;;;;;;;10.85;6.07;;;;;;;7.51;83.21;103200.63;10339610;27;20048;-71
2021/10/08 05:03:49;;;;;;;9.68;5.03;;;;;;;7.48;83.65;103193.75;10344779;27;20079;-71
2021/10/08 05:08:45;;;;;;;9.35;5.43;;;;;;;7.47;83.68;103207.59;10339282;27;20545;-71
2021/10/08 05:13:42;;;;;;;11.75;6.20;;;;;;;7.47;83.44;103199.41;10320259;27;20068;-70
2021/10/08 05:18:38;;;;;;;8.90;5.50;;;;;;;7.45;83.58;103199.69;10329186;27;20040;-69
2021/10/08 05:23:35;;;;;;;8.63;5.35;;;;;;;7.44;83.64;103197.19;10320517;27;20131;-72
2021/10/08 05:28:32;;;;;;;8.40;5.38;;;;;;;7.44;83.80;103197.19;10330609;27;20082;-71
2021/10/08 05:33:28;;;;;;;12.65;6.38;;;;;;;7.36;83.96;103196.47;10327819;27;20345;-70
2021/10/08 05:38:25;;;;;;;9.30;6.00;;;;;;;7.31;84.40;103203.66;10322315;27;20134;-69
2021/10/08 05:43:22;;;;;;;9.32;5.90;;;;;;;7.29;84.55;103197.66;10312603;27;20125;-69
2021/10/08 05:48:18;;;;;;;7.35;5.28;;;;;;;7.27;84.47;103197.88;10322696;27;20494;-70
2021/10/08 05:53:14;;;;;;;11.73;6.55;;;;;;;7.27;85.21;103206.03;10319871;27;20097;-71
2021/10/08 05:58:11;;;;;;;16.75;7.20;;;;;;;7.26;84.88;103212.53;10346269;27;20640;-71
2021/10/08 06:03:07;;;;;;;10.38;6.00;;;;;;;7.25;84.72;103221.78;10339331;27;20139;-70
2021/10/08 06:08:05;;;;;;;12.70;5.68;;;;;;;7.30;84.23;103219.16;10316646;27;20083;-70
2021/10/08 06:13:06;;;;;;;10.32;6.07;;;;;;;7.24;84.78;103232.88;10320177;27;20051;-70
2021/10/08 06:18:02;;;;;;;12.95;6.72;;;;;;;7.21;85.06;103239.63;10315274;28;20080;-70
2021/10/08 06:23:00;;;;;;;8.75;5.50;;;;;;;7.20;85.26;103240.69;10291424;27;20048;-70
2021/10/08 06:27:56;;;;;;;12.40;6.75;;;;;;;7.20;85.83;103246.13;10297248;27;20454;-71
2021/10/08 06:32:54;;;;;;;11.07;6.55;;;;;;;7.25;85.81;103254.44;10295188;28;20067;-70
2021/10/08 06:37:50;;;;;;;11.18;6.65;;;;;;;7.26;85.89;103252.53;10309058;28;20093;-68
2021/10/08 06:42:47;;;;;;;13.00;6.75;;;;;;;7.25;86.29;103257.16;10300335;28;20106;-69
2021/10/08 06:47:43;;;;;;;11.15;7.38;;;;;;;7.26;86.64;103261.50;10302376;27;20095;-69
2021/10/08 06:52:40;;;;;;;12.95;6.75;;;;;;;7.35;87.20;103268.28;10311043;28;20106;-70
2021/10/08 06:57:36;;;;;;;13.52;6.88;;;;;;;7.43;87.52;103266.31;10319196;27;20098;-70
2021/10/08 07:02:33;;;;;;;16.13;8.15;;;;;;;7.49;87.73;103265.34;10318699;28;20433;-70
2021/10/08 07:07:29;;;;;;;14.65;7.25;;;;;;;7.61;87.11;103273.53;10307630;28;20080;-71
2021/10/08 07:12:27;;;;;;;13.50;8.00;;;;;;;7.66;87.10;103271.78;10303743;27;20452;-71
2021/10/08 07:17:24;;;;;;;13.90;8.52;;;;;;;7.76;87.62;103272.00;10295879;28;20080;-69
2021/10/08 07:22:21;;;;;;;12.60;8.73;;;;;;;7.82;88.31;103281.16;10300484;27;20052;-69
2021/10/08 07:27:18;;;;;;;10.80;8.50;;;;;;;7.92;88.80;103280.56;10284886;28;20141;-70
2021/10/08 07:32:15;;;;;;;15.38;8.23;;;;;;;8.06;88.80;103281.97;10285106;27;20072;-69
2021/10/08 07:37:13;;;;;;;16.63;9.85;;;;;;;8.21;89.10;103290.50;10304895;28;20125;-70
2021/10/08 07:42:10;;;;;;;16.10;9.35;;;;;;;8.38;90.30;103289.75;10321075;28;20510;-71
2021/10/08 07:47:07;;;;;;;15.57;9.32;;;;;;;8.54;90.18;103294.47;10321949;28;20076;-71
2021/10/08 07:52:03;;;;;;;17.85;10.18;;;;;;;8.72;90.55;103298.09;10324339;28;20071;-69
2021/10/08 07:57:00;;;;;;;14.32;9.18;;;;;;;8.90;91.49;103303.38;10311803;27;20052;-71
2021/10/08 08:01:56;;;;;;;14.73;9.90;;;;;;;9.03;91.86;103297.63;10310222;27;20045;-71
2021/10/08 08:06:53;;;;;;;21.17;10.75;;;;;;;9.21;92.37;103306.66;10314111;27;20110;-70
2021/10/08 08:11:50;;;;;;;16.90;8.88;;;;;;;9.39;92.52;103301.00;10315218;27;20101;-71
2021/10/08 08:16:46;;;;;;;19.80;10.45;;;;;;;9.57;92.57;103307.31;10309521;28;20835;-69
2021/10/08 08:21:43;;;;;;;18.45;10.95;;;;;;;9.72;92.89;103302.06;10325428;27;20060;-71
2021/10/08 08:26:40;;;;;;;13.73;9.27;;;;;;;9.87;92.82;103304.25;10329153;27;20071;-71
2021/10/08 08:31:36;;;;;;;13.68;10.95;;;;;;;10.01;92.84;103302.00;10295973;27;20072;-72
2021/10/08 08:36:33;;;;;;;12.48;9.15;;;;;;;10.19;92.31;103303.59;10307934;27;20040;-69
2021/10/08 08:41:31;;;;;;;18.00;11.73;;;;;;;10.45;92.73;103302.91;10289803;28;20170;-71
2021/10/08 08:46:29;;;;;;;14.77;11.65;;;;;;;10.69;92.25;103303.47;10288798;28;20059;-69
2021/10/08 08:51:27;;;;;;;14.60;10.95;;;;;;;10.85;92.72;103303.66;10292592;27;20101;-71
2021/10/08 08:56:27;;;;;;;18.98;9.77;;;;;;;10.98;91.88;103295.03;10289389;28;20064;-70
2021/10/08 09:01:24;;;;;;;16.60;10.77;;;;;;;11.08;91.25;103295.13;10296362;27;20190;-71
2021/10/08 09:06:33;;;;;;;14.18;11.32;;;;;;;11.19;91.31;103300.72;10313848;27;20076;-70
2021/10/08 09:11:37;;;;;;;15.20;9.13;;;;;;;11.30;91.38;103302.47;10320982;27;20463;-70
2021/10/08 09:16:34;;;;;;;16.75;9.63;;;;;;;11.41;91.48;103304.22;10307129;28;20102;-71
2021/10/08 09:21:32;;;;;;;15.15;9.27;;;;;;;11.57;91.60;103302.44;10315830;27;20126;-71
2021/10/08 09:26:28;;;;;;;17.83;8.80;;;;;;;11.68;91.04;103309.66;10314385;27;20097;-70
2021/10/08 09:31:27;;;;;;;13.30;8.00;;;;;;;11.87;90.26;103301.88;10304950;28;20052;-70
2021/10/08 09:36:35;;;;;;;13.63;6.85;;;;;;;12.05;88.06;103297.06;10324144;27;20048;-70
2021/10/08 09:41:36;;;;;;;19.27;12.85;;;;;;;12.15;87.92;103292.44;10320499;28;20473;-70
2021/10/08 09:46:32;;;;;;;7.72;5.47;;;;;;;12.26;87.87;103296.06;10307129;28;20506;-71
2021/10/08 09:51:30;;;;;;;8.38;4.63;;;;;;;12.47;87.55;103294.25;10300372;28;20056;-72
2021/10/08 09:56:41;;;;;;;8.43;4.47;;;;;;;12.66;86.83;103291.84;10305054;28;20086;-72
2021/10/08 10:01:40;;;;;;;5.68;2.88;;;;;;;12.80;85.06;103282.00;10297503;28;20044;-72
2021/10/08 10:06:42;;;;;;;5.72;3.28;;;;;;;12.94;84.16;103282.31;10309959;27;20052;-71
2021/10/08 10:11:39;;;;;;;8.20;2.53;;;;;;;13.08;83.38;103281.81;10303017;27;20090;-72
2021/10/08 10:16:37;;;;;;;6.38;2.50;;;;;;;13.18;82.35;103281.81;10300369;27;20072;-72
2021/10/08 10:21:36;;;;;;;4.25;1.65;;;;;;;13.31;82.02;103283.22;10297013;27;20681;-71
2021/10/08 10:26:33;;;;;;;4.70;1.98;;;;;;;13.43;79.37;103278.28;10302337;27;20044;-72
2021/10/08 10:31:35;;;;;;;4.20;1.77;;;;;;;13.62;74.82;103275.78;10302883;28;20044;-71
2021/10/08 10:36:38;;;;;;;3.47;1.55;;;;;;;13.71;74.94;103284.31;10297380;28;20076;-70
2021/10/08 10:41:35;;;;;;;4.57;1.50;;;;;;;13.78;75.84;103284.84;10290678;28;20041;-71
2021/10/08 10:52:02;;;;;;;7.30;1.98;;;;;;;13.92;76.68;103285.94;10288361;27;20082;-72
2021/10/08 10:56:58;;;;;;;4.97;1.92;;;;;;;14.08;74.10;103284.78;10310349;28;20448;-72
2021/10/08 11:02:06;;;;;;;5.70;2.00;;;;;;;14.15;74.63;103284.50;10313396;28;20086;-71
2021/10/08 11:07:11;;;;;;;6.43;1.70;;;;;;;14.31;71.49;103277.03;10306889;27;20044;-71
2021/10/08 11:12:29;;;;;;;5.30;1.45;;;;;;;14.37;74.31;103270.41;10300893;27;20045;-71
2021/10/08 11:17:44;;;;;;;6.28;1.40;;;;;;;14.52;73.49;103273.06;10297429;28;20044;-72
2021/10/08 11:22:44;;;;;;;3.50;1.35;;;;;;;14.71;69.72;103272.47;10293809;27;20102;-71
2021/10/08 11:27:41;;;;;;;4.00;1.15;;;;;;;14.79;70.53;103266.38;10313178;27;20139;-73
2021/10/08 11:32:44;;;;;;;5.90;1.75;;;;;;;14.88;69.78;103264.66;10295265;27;20040;-72
2021/10/08 11:37:42;;;;;;;4.03;1.20;;;;;;;15.00;70.90;103260.75;10297185;27;20040;-71
2021/10/08 11:42:50;;;;;;;5.15;1.42;;;;;;;15.13;70.29;103265.56;10290365;28;20048;-71
2021/10/08 11:47:53;;;;;;;2.15;0.93;;;;;;;15.34;69.89;103263.50;10314491;28;20090;-71
2021/10/08 11:52:55;;;;;;;4.13;0.98;;;;;;;15.69;64.81;103262.38;10316310;28;20080;-71
2021/10/08 11:58:05;;;;;;;4.72;2.03;;;;;;;15.95;65.25;103259.38;10309749;28;20048;-71
2021/10/08 12:03:08;;;;;;;7.30;3.00;;;;;;;16.17;66.67;103254.13;10299101;28;20073;-71
2021/10/08 12:08:04;;;;;;;3.05;0.93;;;;;;;16.46;59.68;103252.41;10315059;27;20048;-73
2021/10/08 12:13:02;;;;;;;5.55;1.67;;;;;;;16.76;60.86;103251.16;10316619;27;20698;-71
2021/10/08 12:18:00;;;;;;;4.55;1.40;;;;;;;16.99;59.66;103233.72;10300241;28;20147;-71
2021/10/08 12:23:16;;;;;;;6.85;1.83;;;;;;;17.12;63.89;103231.28;10320227;27;20037;-71
2021/10/08 12:28:17;;;;;;;4.47;1.80;;;;;;;17.36;59.36;103232.00;10327897;27;20102;-71
2021/10/08 12:33:22;;;;;;;4.53;1.33;;;;;;;17.55;59.70;103223.63;10305916;28;20090;-71
2021/10/08 12:38:19;;;;;;;7.10;1.52;;;;;;;18.04;62.65;103226.88;10305468;27;20110;-71
2021/10/08 12:43:22;;;;;;;6.15;1.80;;;;;;;18.86;61.00;103233.41;10320958;28;20099;-72
2021/10/08 12:48:19;;;;;;;7.35;3.10;;;;;;;19.06;58.76;103227.38;10303180;28;20455;-71
2021/10/08 12:53:17;;;;;;;3.67;1.73;;;;;;;19.49;58.33;103229.59;10317671;27;20089;-71
2021/10/08 12:58:20;;;;;;;6.00;2.60;;;;;;;19.60;57.07;103218.22;10323359;28;20044;-70
2021/10/08 13:03:36;;;;;;;7.45;3.05;;;;;;;19.39;57.20;103206.88;10308241;28;20032;-71
2021/10/08 13:08:35;;;;;;;5.75;2.63;;;;;;;18.99;62.23;103207.59;10307156;28;20056;-71
2021/10/08 13:13:46;;;;;;;6.43;3.10;;;;;;;18.80;60.42;103204.16;10318327;28;20590;-71
2021/10/08 13:18:43;;;;;;;8.20;4.28;;;;;;;18.70;61.00;103208.81;10330216;28;20734;-70
2021/10/08 13:23:40;;;;;;;7.97;4.45;;;;;;;18.20;62.98;103206.06;10333732;28;20040;-72
2021/10/08 13:28:37;;;;;;;7.75;5.65;;;;;;;17.70;63.89;103208.69;10333403;27;20072;-74
2021/10/08 13:33:34;;;;;;;10.05;5.28;;;;;;;17.32;65.77;103214.38;10325835;27;20127;-71
2021/10/08 13:38:31;;;;;;;10.10;5.50;;;;;;;17.01;67.24;103211.28;10305887;27;20040;-71
2021/10/08 13:43:29;;;;;;;11.50;6.70;;;;;;;16.68;68.29;103204.88;10299298;28;20071;-72
2021/10/08 13:48:25;;;;;;;10.68;7.00;;;;;;;16.84;68.54;103200.78;10311998;27;20068;-71
2021/10/08 13:53:40;;;;;;;10.27;6.47;;;;;;;17.28;68.46;103193.97;10301016;27;20631;-71
2021/10/08 13:58:37;;;;;;;10.18;6.28;;;;;;;17.51;68.12;103200.47;10301740;27;20037;-73
2021/10/08 14:13:39;;;;;;;12.00;8.82;;;;;;;17.87;62.93;103208.94;10320385;27;20071;-70
2021/10/08 14:18:35;;;;;;;13.43;9.35;;;;;;;17.45;63.56;103202.53;10325196;28;20036;-72
2021/10/08 14:23:32;;;;;;;15.05;9.70;;;;;;;17.36;67.21;103214.56;10323297;27;20123;-73
2021/10/08 14:28:30;;;;;;;11.45;9.43;;;;;;;17.25;65.23;103208.41;10328558;27;20067;-71
2021/10/08 14:33:27;;;;;;;10.85;7.90;;;;;;;16.99;64.01;103203.31;10325777;28;20066;-71
2021/10/08 14:38:23;;;;;;;13.88;10.90;;;;;;;16.83;64.98;103202.72;10330021;28;20079;-70
2021/10/08 14:43:20;;;;;;;13.63;9.88;;;;;;;16.72;67.73;103208.69;10318036;28;20478;-72
2021/10/08 14:48:16;;;;;;;13.68;10.30;;;;;;;16.63;69.90;103203.00;10322658;28;20044;-72
2021/10/08 14:53:19;;;;;;;14.27;11.50;;;;;;;16.53;70.24;103215.03;10323199;27;20106;-73
2021/10/08 14:58:15;;;;;;;15.82;12.32;;;;;;;16.33;71.79;103215.28;10319360;28;20055;-71
2021/10/08 15:03:14;;;;;;;17.52;12.32;;;;;;;16.20;71.25;103212.16;10300833;27;20575;-70
2021/10/08 15:08:10;;;;;;;17.00;12.20;;;;;;;15.95;72.03;103205.00;10322801;27;20704;-74
2021/10/08 15:13:07;;;;;;;18.08;13.20;;;;;;;15.74;73.18;103212.69;10314948;27;20479;-71
2021/10/08 15:18:04;;;;;;;18.58;13.68;;;;;;;15.68;73.21;103210.25;10296653;28;20049;-71
2021/10/08 15:23:00;;;;;;;19.83;13.77;;;;;;;15.54;72.69;103221.13;10302879;27;20502;-70
2021/10/08 15:27:58;;;;;;;16.73;13.57;;;;;;;15.33;73.34;103221.31;10308217;28;20052;-70
2021/10/08 15:32:55;;;;;;;22.27;15.57;;;;;;;15.13;74.08;103215.97;10289911;27;20090;-69
2021/10/08 15:37:52;;;;;;;21.98;16.48;;;;;;;14.96;74.04;103208.13;10279659;27;20076;-68
2021/10/08 15:42:48;;;;;;;20.35;15.95;;;;;;;14.82;75.99;103216.22;10295801;27;20032;-70
2021/10/08 15:47:45;;;;;;;18.67;14.98;;;;;;;14.69;76.93;103211.34;10308311;28;20135;-74
2021/10/08 15:52:41;;;;;;;21.65;15.52;;;;;;;14.71;77.27;103211.88;10317709;27;20460;-69
2021/10/08 15:57:38;;;;;;;19.92;16.10;;;;;;;14.58;77.78;103213.34;10310894;27;20076;-70
2021/10/08 16:02:34;;;;;;;20.33;15.57;;;;;;;14.39;77.64;103202.16;10293536;27;20040;-70
2021/10/08 16:07:31;;;;;;;20.52;15.13;;;;;;;14.29;77.97;103224.19;10287869;27;20495;-71
2021/10/08 16:12:31;;;;;;;22.85;17.17;;;;;;;14.12;78.98;103215.47;10299009;28;20044;-71
2021/10/08 16:17:28;;;;;;;20.70;15.30;;;;;;;14.01;78.94;103218.25;10299667;28;20048;-71
2021/10/08 16:22:26;;;;;;;23.33;17.10;;;;;;;13.91;79.51;103223.78;10288746;27;20094;-71
2021/10/08 16:27:23;;;;;;;23.45;16.45;;;;;;;13.80;79.83;103222.16;10287984;27;20051;-70
2021/10/08 16:32:20;;;;;;;22.52;16.02;;;;;;;13.67;80.44;103218.91;10286077;27;20502;-70
2021/10/08 16:37:17;;;;;;;22.60;16.63;;;;;;;13.57;80.81;103221.66;10298870;27;20117;-70
2021/10/08 16:42:14;;;;;;;20.38;16.33;;;;;;;13.47;81.17;103229.91;10288367;28;20041;-70
2021/10/08 16:47:17;;;;;;;23.27;16.15;;;;;;;13.44;81.39;103230.47;10288607;28;20053;-70
2021/10/08 16:52:14;;;;;;;25.77;19.05;;;;;;;13.36;81.73;103233.78;10310665;28;20119;-73
2021/10/08 16:57:10;;;;;;;25.00;17.40;;;;;;;13.25;82.18;103238.41;10288140;28;20040;-72
2021/10/08 17:02:07;;;;;;;25.05;18.05;;;;;;;13.17;82.43;103237.03;10300988;28;20044;-71
2021/10/08 17:07:04;;;;;;;25.55;18.23;;;;;;;13.09;82.95;103234.84;10303460;28;20078;-71
2021/10/08 17:12:00;;;;;;;25.92;18.00;;;;;;;13.06;83.07;103240.88;10311667;27;20067;-72
2021/10/08 17:16:57;;;;;;;25.50;19.10;;;;;;;12.97;83.52;103237.00;10299965;28;20453;-70
2021/10/08 17:21:54;;;;;;;25.67;19.10;;;;;;;12.91;84.02;103238.94;10312150;27;20067;-70
2021/10/08 17:27:06;;;;;;;25.98;20.33;;;;;;;12.89;84.34;103234.81;10316615;27;20045;-70
2021/10/08 17:37:19;;;;;;;28.85;21.42;;;;;;;12.77;84.71;103240.56;10303150;28;20151;-71
2021/10/08 17:42:15;;;;;;;32.20;23.33;;;;;;;12.70;84.84;103231.75;10303130;27;20045;-71
2021/10/08 17:47:12;;;;;;;32.45;21.38;;;;;;;12.65;85.00;103240.81;10300069;28;20048;-71
2021/10/08 17:52:08;;;;;;;28.73;21.20;;;;;;;12.63;85.19;103245.75;10298008;28;20090;-72
2021/10/08 17:57:05;;;;;;;26.67;19.55;;;;;;;12.58;85.16;103240.25;10288292;28;20549;-71
2021/10/08 18:02:01;;;;;;;29.38;20.85;;;;;;;12.51;85.19;103245.97;10301540;27;20048;-71
2021/10/08 18:06:58;;;;;;;28.63;20.92;;;;;;;12.46;85.53;103242.38;10298149;28;20131;-71
2021/10/08 18:11:54;;;;;;;30.48;22.48;;;;;;;12.41;85.22;103240.44;10304066;27;20066;-69
2021/10/08 18:16:51;;;;;;;31.27;24.25;;;;;;;12.37;85.34;103245.66;10309621;28;20099;-71
2021/10/08 18:21:47;;;;;;;32.70;23.00;;;;;;;12.33;85.73;103250.03;10308854;28;20060;-71
2021/10/08 18:26:46;;;;;;;33.38;25.33;;;;;;;12.34;86.28;103246.16;10312072;28;20749;-70
2021/10/08 18:31:48;;;;;;;34.72;25.63;;;;;;;12.33;86.55;103254.69;10302681;27;20083;-69
2021/10/08 18:36:45;;;;;;;31.27;23.80;;;;;;;12.30;86.79;103247.81;10309586;27;20048;-69
2021/10/08 18:41:42;;;;;;;35.67;24.77;;;;;;;12.28;87.28;103247.25;10319770;27;20124;-69
2021/10/08 18:46:39;;;;;;;32.03;23.17;;;;;;;12.36;87.32;103254.97;10317003;27;20714;-70
2021/10/08 18:51:36;;;;;;;36.35;26.55;;;;;;;12.38;87.54;103251.97;10323652;27;20048;-69
2021/10/08 18:56:33;;;;;;;34.85;25.92;;;;;;;12.39;87.87;103251.69;10304136;27;20160;-69
2021/10/08 19:01:30;;;;;;;32.70;23.63;;;;;;;12.40;88.10;103256.09;10299928;27;20135;-69
2021/10/08 19:06:27;;;;;;;31.73;24.95;;;;;;;12.41;88.16;103254.16;10311091;28;20048;-70
2021/10/08 19:11:27;;;;;;;35.83;25.10;;;;;;;12.47;88.51;103247.59;10326354;27;20497;-69
2021/10/08 19:16:58;;;;;;;33.58;24.60;;;;;;;12.48;88.86;103249.25;10317496;27;20056;-69
2021/10/08 19:21:41;;;;;;;33.95;24.58;;;;;;;12.49;88.96;103247.34;10323291;27;20109;-68
2021/10/08 19:26:38;;;;;;;30.00;22.92;;;;;;;12.48;89.18;103248.44;10318676;28;20459;-70
2021/10/08 19:31:34;;;;;;;36.47;24.63;;;;;;;12.47;89.11;103260.50;10294171;28;20103;-69
2021/10/08 19:36:31;;;;;;;31.83;23.42;;;;;;;12.43;89.19;103261.03;10311766;27;20036;-69
2021/10/08 19:41:28;;;;;;;30.38;22.58;;;;;;;12.39;89.18;103259.09;10318271;27;20476;-69
2021/10/08 19:46:27;;;;;;;31.88;23.05;;;;;;;12.33;89.15;103255.50;10316968;27;20052;-70
2021/10/08 19:51:24;;;;;;;29.35;21.80;;;;;;;12.27;89.28;103259.31;10305358;27;20098;-70
2021/10/08 19:56:20;;;;;;;29.98;21.55;;;;;;;12.24;89.39;103259.84;10307634;27;20106;-70
2021/10/08 20:01:17;;;;;;;27.75;21.67;;;;;;;12.21;89.61;103257.66;10289838;27;20048;-70
2021/10/08 20:06:32;;;;;;;30.50;21.33;;;;;;;12.19;89.42;103259.84;10298287;27;20044;-70
2021/10/08 20:16:43;;;;;;;32.40;21.17;;;;;;;12.09;89.43;103259.75;10288063;28;20541;-70
2021/10/08 20:21:42;;;;;;;31.80;22.10;;;;;;;12.07;89.26;103259.19;10319104;27;20067;-70
2021/10/08 20:26:43;;;;;;;31.35;22.55;;;;;;;12.03;89.73;103266.34;10317145;27;20060;-69
2021/10/08 20:31:40;;;;;;;30.27;21.10;;;;;;;11.99;89.76;103260.53;10295721;27;20061;-70
2021/10/08 20:36:37;;;;;;;32.25;22.35;;;;;;;11.94;89.70;103264.06;10303914;28;20076;-70
2021/10/08 20:41:34;;;;;;;28.15;21.45;;;;;;;11.91;90.10;103264.63;10312086;28;20073;-69
2021/10/08 20:46:30;;;;;;;32.53;21.58;;;;;;;11.87;89.82;103262.63;10312185;28;20514;-72
2021/10/08 20:51:27;;;;;;;30.98;20.58;;;;;;;11.83;90.09;103256.03;10307283;27;20087;-70
2021/10/08 20:56:23;;;;;;;30.67;20.70;;;;;;;11.80;90.14;103265.59;10315104;27;20135;-70
2021/10/08 21:01:20;;;;;;;28.02;20.42;;;;;;;11.79;89.97;103266.72;10302359;27;20072;-69
2021/10/08 21:06:17;;;;;;;27.05;19.92;;;;;;;11.76;90.57;103262.56;10300027;28;20040;-70
2021/10/08 21:11:13;;;;;;;28.45;19.08;;;;;;;11.75;90.56;103265.56;10311632;27;20048;-72
2021/10/08 21:16:10;;;;;;;25.02;18.73;;;;;;;11.73;90.40;103259.53;10305534;28;20068;-69
2021/10/08 21:21:06;;;;;;;26.20;18.73;;;;;;;11.71;90.27;103258.97;10296004;27;20060;-71
2021/10/08 21:26:03;;;;;;;25.27;19.25;;;;;;;11.68;90.13;103254.84;10294462;27;20049;-71
2021/10/08 21:31:00;;;;;;;28.38;20.08;;;;;;;11.67;90.32;103241.38;10269353;27;20437;-68
2021/10/08 21:36:08;;;;;;;23.70;18.00;;;;;;;11.61;90.31;103242.47;10280553;27;20499;-68
2021/10/08 21:41:27;;;;;;;27.48;19.35;;;;;;;11.58;90.19;103247.38;10272316;28;20053;-67
2021/10/08 21:46:22;;;;;;;25.08;18.02;;;;;;;11.56;90.91;103246.81;10290824;28;20168;-67
2021/10/08 21:51:19;;;;;;;25.92;18.02;;;;;;;11.53;91.43;103252.81;10274360;28;20486;-69
2021/10/08 21:56:16;;;;;;;28.38;19.02;;;;;;;11.52;91.37;103256.63;10293352;28;20097;-68
2021/10/08 22:01:20;;;;;;;28.45;18.23;;;;;;;11.50;92.17;103258.81;10296570;27;20552;-67
2021/10/08 22:06:17;;;;;;;26.58;17.17;;;;;;;11.51;92.14;103255.00;10295389;27;20084;-67
2021/10/08 22:11:14;;;;;;;25.33;17.98;;;;;;;11.52;92.14;103256.63;10320830;27;21230;-67
2021/10/08 22:16:13;;;;;;;26.15;18.38;;;;;;;11.48;92.17;103255.50;10325932;28;20787;-67
2021/10/08 22:21:09;;;;;;;28.00;19.17;;;;;;;11.45;91.81;103261.50;10314132;27;20060;-67
2021/10/08 22:26:15;;;;;;;27.73;19.13;;;;;;;11.45;91.75;103260.69;10307871;27;20509;-67
2021/10/08 22:36:29;;;;;;;27.33;19.60;;;;;;;11.34;91.46;103254.28;10311657;27;20467;-68
2021/10/08 22:41:26;;;;;;;26.67;18.85;;;;;;;11.29;91.60;103257.00;10328584;27;20072;-69
2021/10/08 22:46:23;;;;;;;26.25;18.35;;;;;;;11.24;91.36;103248.75;10325122;28;20598;-69
2021/10/08 22:51:19;;;;;;;28.35;19.77;;;;;;;11.21;91.28;103254.72;10318927;28;20040;-68
2021/10/08 22:56:16;;;;;;;28.13;18.88;;;;;;;11.17;91.16;103254.44;10316393;28;20576;-68
2021/10/08 23:01:12;;;;;;;27.17;19.75;;;;;;;11.14;91.13;103250.31;10326056;28;20091;-67
2021/10/08 23:11:46;;;;;;;25.98;18.33;;;;;;;11.03;91.37;103239.50;10323270;27;20049;-68
2021/10/08 23:16:43;;;;;;;33.08;20.13;;;;;;;10.98;91.40;103245.78;10314006;28;20052;-68
2021/10/08 23:21:39;;;;;;;33.38;20.70;;;;;;;10.94;90.76;103233.69;10335191;27;20041;-68
2021/10/08 23:26:36;;;;;;;30.58;19.90;;;;;;;10.90;91.30;103238.00;10339358;27;20043;-68
2021/10/08 23:31:32;;;;;;;29.05;19.55;;;;;;;10.84;91.21;103244.53;10323262;27;20044;-67
2021/10/08 23:36:29;;;;;;;30.80;19.90;;;;;;;10.78;90.69;103240.09;10306823;27;20127;-68
2021/10/08 23:41:25;;;;;;;31.13;21.50;;;;;;;10.76;91.10;103240.31;10331715;27;20068;-68
2021/10/08 23:46:22;;;;;;;32.80;20.83;;;;;;;10.63;90.77;103241.56;10316561;28;20563;-68